• Join FlightAware (Why Join?)
  • Login
  • US Flag 
07:53AM EDT


 

Airport Tracker/Info


-or-


 

Live Flight TrackerFlight Track Log ✈ SKW6345 ✈ 13-Aug-2013 ✈ KSFO - KBZN

Flight Track Log - Related Links

Times and Time Zones

All times are in EDT time to prevent confusion due to time zone crossing. See the SKW6345 flight status page for this flight to view local times or setup timezone preferences in your user account.

Time Position Orientation Groundspeed Altitude Reporting Facility
EDT Latitude Longitude Course Direction KTS MPH feet Rate Location/Type
11:21AM 37.6500 -122.3333 38° Northeast 174 200 1,500  Level Northern Cal TRACON
11:22AM 37.7000 -122.2833 38° Northeast 220 253 3,800 2,160 Climbing Northern Cal TRACON
11:23AM 37.7500 -122.2333 38° Northeast 262 302 5,700 2,160 Climbing Northern Cal TRACON
11:24AM 37.6804 -122.3030 38° Northeast  Level FlightAware Approximate
11:25AM 37.7822 -122.2012 38° Northeast  Level FlightAware Approximate
11:25AM 37.8472 -122.1372 38° Northeast 282 325 9,600  Level Oakland Center
11:26AM 37.8840 -122.0993 38° Northeast  Level FlightAware Approximate
11:26AM 37.9139 -122.0728 37° Northeast 301 346 11,700  Level Oakland Center
11:27AM 37.9828 -122.0047 38° Northeast 314 361 13,300 1,800 Climbing Oakland Center
11:28AM 38.0731 -121.9161 38° Northeast 340 391 15,400 1,620 Climbing Oakland Center
11:29AM 38.1500 -121.8406 38° Northeast 350 403 16,700 1,320 Climbing Oakland Center
11:30AM 38.2297 -121.7628 37° Northeast 360 414 18,200 1,320 Climbing Oakland Center
11:31AM 38.3150 -121.6911 33° Northeast 371 427 19,500 1,200 Climbing Oakland Center
11:32AM 38.4136 -121.6447 20° North 379 436 20,700 1,080 Climbing Oakland Center
11:33AM 38.5078 -121.5947 23° Northeast 383 441 21,800 1,020 Climbing Oakland Center
11:34AM 38.6014 -121.5153 34° Northeast 395 455 22,800 1,020 Climbing Oakland Center
11:35AM 38.6947 -121.4333 34° Northeast 398 458 23,900 1,020 Climbing Oakland Center
11:36AM 38.7914 -121.3533 33° Northeast 404 465 24,900 1,020 Climbing Oakland Center
11:37AM 38.9061 -121.2547 34° Northeast 411 473 26,000 900 Climbing Oakland Center
11:38AM 39.0033 -121.1717 34° Northeast 416 479 26,800 780 Climbing Oakland Center
11:39AM 39.1008 -121.0872 34° Northeast 420 483 27,600 720 Climbing Oakland Center
11:40AM 39.1983 -121.0025 34° Northeast 422 486 28,300 600 Climbing Oakland Center
11:41AM 39.2972 -120.9150 34° Northeast 428 493 28,900 480 Climbing Oakland Center
11:42AM 39.3972 -120.8286 34° Northeast 432 497 29,400 420 Climbing Oakland Center
11:43AM 39.4983 -120.7403 34° Northeast 437 503 29,800 360 Climbing Oakland Center
11:44AM 39.6014 -120.6494 34° Northeast 446 513 30,200 360 Climbing Oakland Center
11:45AM 39.7056 -120.5581 34° Northeast 450 518 30,600 360 Climbing Oakland Center
11:46AM 39.8114 -120.4642 34° Northeast 459 528 31,000 420 Climbing Oakland Center
11:47AM 39.9375 -120.3531 34° Northeast 456 525 31,500 480 Climbing Oakland Center
11:48AM 40.0397 -120.2622 34° Northeast 458 527 32,000 480 Climbing Oakland Center
11:49AM 40.1456 -120.1692 34° Northeast 457 526 32,500 480 Climbing Oakland Center
11:50AM 40.2494 -120.0744 35° Northeast 455 524 33,000 240 Climbing Oakland Center
11:51AM 40.3558 -119.9783 35° Northeast 460 529 33,000  Level Oakland Center
11:52AM 40.4642 -119.8800 35° Northeast 469 540 33,000  Level Oakland Center
11:53AM 40.5806 -119.7761 34° Northeast 474 545 33,000  Level Oakland Center
11:54AM 40.6897 -119.6761 35° Northeast 479 551 33,000  Level Oakland Center
11:56AM 40.8108 -119.5644 35° Northeast 488 562 33,000  Level Oakland Center
11:57AM 40.9164 -119.4672 35° Northeast 483 556 33,000  Level Oakland Center
11:57AM 41.0225 -119.3678 35° Northeast 484 557 33,000  Level Salt Lake Center
11:58AM 41.1297 -119.2697 35° Northeast 486 559 33,000  Level Salt Lake Center
12:00PM 41.2531 -119.1553 35° Northeast 484 557 33,000  Level Salt Lake Center
12:01PM 41.3569 -119.0583 35° Northeast 480 552 33,000  Level Salt Lake Center
12:02PM 41.4786 -118.9442 35° Northeast 477 549 33,000  Level Salt Lake Center
12:03PM 41.5842 -118.8428 36° Northeast 483 556 33,000  Level Salt Lake Center
12:04PM 41.7031 -118.7294 35° Northeast 474 545 33,000  Level Salt Lake Center
12:05PM 41.8064 -118.6322 35° Northeast 473 544 33,000  Level Salt Lake Center
12:06PM 41.9094 -118.5336 35° Northeast 473 544 33,000  Level Salt Lake Center
12:07PM 42.0281 -118.4203 35° Northeast 470 541 33,000  Level Salt Lake Center
12:08PM 42.1300 -118.3219 36° Northeast 469 540 33,000  Level Salt Lake Center
12:09PM 42.2486 -118.2067 36° Northeast 469 540 33,000  Level Salt Lake Center
12:10PM 42.3522 -118.1028 37° Northeast 475 547 33,000  Level Salt Lake Center
12:11PM 42.4689 -117.9875 36° Northeast 465 535 33,000  Level Salt Lake Center
12:12PM 42.5706 -117.8869 36° Northeast 472 543 33,000  Level Salt Lake Center
12:13PM 42.6636 -117.7328 51° Northeast 474 545 33,000  Level Salt Lake Center
12:14PM 42.7389 -117.5947 53° Northeast 474 545 33,000  Level Salt Lake Center
12:15PM 42.8269 -117.4333 53° Northeast 474 545 33,000  Level Salt Lake Center
12:16PM 42.9011 -117.2933 54° Northeast 474 545 33,000  Level Salt Lake Center
12:17PM 42.9831 -117.1422 53° Northeast 473 544 33,000  Level Salt Lake Center
12:18PM 43.0639 -116.9886 54° Northeast 476 548 33,000  Level Salt Lake Center
12:19PM 43.1450 -116.8358 54° Northeast 475 547 33,000  Level Salt Lake Center
12:20PM 43.2256 -116.6831 54° Northeast 475 547 33,000  Level Salt Lake Center
12:21PM 43.3067 -116.5306 54° Northeast 473 544 33,000  Level Salt Lake Center
12:22PM 43.3811 -116.3878 54° Northeast 476 548 33,000  Level Salt Lake Center
12:23PM 43.4622 -116.2308 55° Northeast 478 550 33,000  Level Salt Lake Center
12:24PM 43.5425 -116.0764 54° Northeast 475 547 33,000  Level Salt Lake Center
12:25PM 43.6228 -115.9189 55° Northeast 480 552 33,000  Level Salt Lake Center
12:26PM 43.7033 -115.7625 54° Northeast 477 549 33,000  Level Salt Lake Center
12:27PM 43.7772 -115.6178 55° Northeast 476 548 33,000  Level Salt Lake Center
12:28PM 43.8550 -115.4614 55° Northeast 475 547 33,000  Level Salt Lake Center
12:29PM 43.9336 -115.3050 55° Northeast 473 544 33,000  Level Salt Lake Center
12:31PM 44.0114 -115.1500 55° Northeast 470 541 33,000  Level Salt Lake Center
12:32PM 44.0914 -114.9900 55° Northeast 469 540 33,000  Level Salt Lake Center
12:33PM 44.1628 -114.8481 55° Northeast 466 536 33,000  Level Salt Lake Center
12:34PM 44.2781 -114.7300 36° Northeast 460 529 33,000  Level Salt Lake Center
12:35PM 44.3764 -114.6286 36° Northeast 460 529 33,000  Level Salt Lake Center
12:36PM 44.4561 -114.4972 50° Northeast 463 533 33,000  Level Salt Lake Center
12:37PM 44.5447 -114.3369 52° Northeast 464 534 33,000  Level Salt Lake Center
12:38PM 44.6142 -114.1967 55° Northeast 460 529 33,000 -660 Level Salt Lake Center
12:39PM 44.6856 -114.0178 61° Northeast 467 537 31,700 -1,320 Descending Salt Lake Center
12:40PM 44.7483 -113.8614 60° Northeast 475 547 30,300 -1,500 Descending Salt Lake Center
12:41PM 44.8203 -113.6797 61° Northeast 476 548 28,600 -1,560 Descending Salt Lake Center
12:42PM 44.8822 -113.5281 60° Northeast 470 541 27,100 -1,500 Descending Salt Lake Center
12:43PM 44.9514 -113.3489 61° Northeast 466 536 25,500 -1,260 Descending Salt Lake Center
12:44PM 45.0131 -113.1958 60° Northeast 467 537 24,600 -1,020 Descending Salt Lake Center
12:45PM 45.0797 -113.0222 61° Northeast 457 526 23,500 -1,020 Descending Salt Lake Center
12:46PM 45.1375 -112.8742 61° Northeast 451 519 22,500 -960 Descending Salt Lake Center
12:47PM 45.1939 -112.7281 61° Northeast 444 511 21,500 -1,020 Descending Salt Lake Center
12:48PM 45.2603 -112.5556 61° Northeast 444 511 20,400 -1,020 Descending Salt Lake Center
12:49PM 45.3153 -112.4097 62° Northeast 440 506 19,400 -1,020 Descending Salt Lake Center
12:50PM 45.3789 -112.2450 61° Northeast 441 507 18,300 -900 Descending Salt Lake Center
12:51PM 45.4367 -112.0931 62° Northeast 438 504 17,600 -840 Descending Salt Lake Center
12:52PM 45.4925 -111.9442 62° Northeast 431 496 16,600 -1,020 Descending Salt Lake Center
12:53PM 45.5475 -111.7958 62° Northeast 425 489 15,600 -1,260 Descending Salt Lake Center
12:54PM 45.6133 -111.6200 62° Northeast 421 484 14,000 -1,980 Descending Salt Lake Center
12:55PM 45.6611 -111.4914 62° Northeast 384 442 11,600 -2,280 Descending Salt Lake Center
12:56PM 45.7183 -111.3967 49° Northeast 343 395 9,300 -2,160 Descending Salt Lake Center
12:57PM 45.7864 -111.3394 30° Northeast 302 348 7,200 -1,260 Descending Salt Lake Center
12:58PM 45.8475 -111.3264 North 245 282 6,800 -300 Descending Salt Lake Center
12:59PM 45.8503 -111.2583 87° East 210 242 6,600 -600 Descending Salt Lake Center
01:01PM 45.8244 -111.2125 129° Southeast 188 216 5,600 -1,020 Descending Salt Lake Center